Hauptseite
METAR-TAF:

METAR-TAF

Flughäfen :

Flughafen Sønderborg

Sønderborg, Dänemark

Breite: 54-58N, Länge: 009-47E, Höhe: 7 m

Beobachtung

Neuester Wetterbericht von vor 27 Minuten, um 18:50 UTC
Wind 13 kt aus Ost/Nordost
Temperatur 7°C
Luftfeuchtigkeit 76%
Luftdruck 1033 hPa
Sichtweite 10 km oder mehr
Durchbrochene Bewölkung in der Höhe von 2300 ft

METAR: EKSB 181850Z 06013KT 9999 BKN023 07/03 Q1033

Zeit: 20:17 (19:17 UTC)

Prognose

Neuester Wetterbericht von vor 4 Stunden und 17 Minuten, um 15:00 UTC
Gültige Prognose vom 18 um 15 UTC bis 18 um 20 UTC
Wind 12 kt aus Ost/Nordost
Sichtweite 10 km oder mehr
Durchbrochene Bewölkung in der Höhe von 2000 ft
Zeitweise
vom 18 um 15 UTC bis 18 um 20 UTC
Durchbrochene Bewölkung in der Höhe von 1200 ft

TAF: EKSB 181500Z 1815/1820 07012KT 9999 BKN020 TEMPO 1815/1820 BKN012

Wetterbeobachtungen und Prognosen von mehr als 4000 Flughäfen (METAR und TAF Bericht).

Die verfügbaren Stationen werden durch gelbe und rote Markierungen auf der Karte dargestellt.

Führen Sie die Maus auf sie, um den Namen der Station zu sehen.

Darauf klicken, um die Beobachtung von Wetterbeobachtungen und Prognosen zu sehen.

Um die Karte zu ändern : klicken Sie auf den grünen Tasten mit einem schwarzen Kreuz Zum Vergrößern, auf den grünen Button mit einem Gedankenstrich zu verkleinern, oder auf die grünen Pfeile für benachbarte Karten.


METAR-TAF: